16:19
Airports
Links
Donate
Help keep this website running!
PayPal
Bitcoin
METAR
KJFK 241551Z 32008KT 10SM BKN100 BKN250 11/05 A3017 RMK AO2 SLP216 T01110050
Current Weather Conditions at KJFK
VFR 15:51:00 24-02-18
Automated station
Altimeter:30.17 hg
Temp:11.1°c 52°f
Dew point:5.0°c 41°f
Wind:8 knots, 9.2 mph, 4 m/s, from 320°
Visibility:10.0 statute miles
25000(BKN) Broken
10000(BKN) Broken
Past METAR reports
VFR 14:51:00 24-02-18
Automated station
Altimeter:30.16 hg
Temp:11.1°c 52°f
Dew point:5.6°c 41°f
Wind:10 knots, 11.5 mph, 5 m/s, from 330°
Visibility:10.0 statute miles
25000(BKN) Broken
10000(BKN) Broken
KJFK 241451Z 33010KT 10SM BKN100 BKN250 11/06 A3016 RMK AO2 SLP214 T01110056 58008
VFR 13:51:00 24-02-18
Automated station
Altimeter:30.18 hg
Temp:8.3°c 46°f
Dew point:6.7°c 43°f
Wind:7 knots, 8.1 mph, 4 m/s, from 240°
Visibility:7.0 statute miles
25000(BKN) Broken
22000(BKN) Broken
KJFK 241351Z 24007KT 7SM BKN220 BKN250 08/07 A3018 RMK AO2 SLP218 T00830067
VFR 12:51:00 24-02-18
Automated station
Altimeter:30.18 hg
Temp:8.3°c 46°f
Dew point:6.7°c 43°f
Wind:8 knots, 9.2 mph, 4 m/s, from 290°
Visibility:8.0 statute miles
25000(BKN) Broken
20000(SCT) Scattered
1400(FEW) A few
KJFK 241251Z 29008KT 8SM FEW014 SCT200 BKN250 08/07 A3018 RMK AO2 SLP220 T00830067
VFR 12:05:00 24-02-18
Automated station
Altimeter:30.18 hg
Temp:6.7°c 43°f
Dew point:5.6°c 41°f
Wind:8 knots, 9.2 mph, 4 m/s, from 280°
Visibility:6.0 statute miles
23000(BKN) Broken
19000(BKN) Broken
1300(SCT) Scattered
KJFK 241205Z 28008KT 6SM BR SCT013 BKN190 BKN230 07/06 A3018 RMK AO2 T00670056
MVFR 11:51:00 24-02-18
Automated station
Altimeter:30.19 hg
Temp:6.7°c 43°f
Dew point:5.6°c 41°f
Wind:9 knots, 10.4 mph, 5 m/s, from 270°
Visibility:6.0 statute miles
19000(BKN) Broken
1300(BKN) Broken
KJFK 241151Z 27009KT 6SM BR BKN013 BKN190 07/06 A3019 RMK AO2 SLP222 70012 T00670056 10067 20056 53013
MVFR 11:31:00 24-02-18
Automated station
Altimeter:30.18 hg
Temp:6.7°c 43°f
Dew point:5.6°c 41°f
Wind:10 knots, 11.5 mph, 5 m/s, from 270°
Visibility:8.0 statute miles
19000(BKN) Broken
1500(BKN) Broken
KJFK 241131Z 27010KT 8SM BKN015 BKN190 07/06 A3018 RMK AO2 T00670056
TAF
KJFK 241440Z 2415/2518 29008KT P6SM FEW025 SCT100 FM241700 31007KT 6SM -SHRA SCT025 BKN060 FM242100 34007KT P6SM -RA SCT025 OVC060 FM242300 03006KT 4SM -RA BKN035 FM250300 06005KT 5SM -RA BKN020 FM250500 07006KT 5SM RA BKN015 FM250800 08011G22KT 3SM RA OVC015 FM250900 09013G25KT 2SM RA OVC009 FM251700 10011KT 2SM RA OVC008
Forecast at KJFK
15:00 24-02-18 to 17:00 24-02-18
Wind:8 Knots from 290°
Visibility:6.21 statute miles
2500FEW A few
10000SCT Scattered
FM 17:00 24-02-18 to 21:00 24-02-18
-SHRA
Wind:7 Knots from 310°
Visibility:6.0 statute miles
2500SCT Scattered
6000BKN Broken
FM 21:00 24-02-18 to 23:00 24-02-18
-RA
Wind:7 Knots from 340°
Visibility:6.21 statute miles
2500SCT Scattered
6000OVC Overcast
FM 23:00 24-02-18 to 03:00 25-02-18
-RA
Wind:6 Knots from 30°
Visibility:4.0 statute miles
3500BKN Broken
FM 03:00 25-02-18 to 05:00 25-02-18
-RA
Wind:5 Knots from 60°
Visibility:5.0 statute miles
2000BKN Broken
FM 05:00 25-02-18 to 08:00 25-02-18
RA
Wind:6 Knots from 70°
Visibility:5.0 statute miles
1500BKN Broken
FM 08:00 25-02-18 to 09:00 25-02-18
RA
Wind:11 Knots from 80°
Visibility:3.0 statute miles
1500OVC Overcast
FM 09:00 25-02-18 to 17:00 25-02-18
RA
Wind:13 Knots from 90°
Visibility:2.0 statute miles
900OVC Overcast
FM 17:00 25-02-18 to 18:00 25-02-18
RA
Wind:11 Knots from 100°
Visibility:2.0 statute miles
800OVC Overcast